createdAt,value
2023-04-15T00:02:14.714Z,81.73
2023-04-15T00:04:42.079Z,83.43
2023-04-15T00:07:10.127Z,82.72
2023-04-15T00:09:38.056Z,82.80
2023-04-15T00:12:06.574Z,82.46
2023-04-15T00:14:34.831Z,82.34
2023-04-15T00:17:03.635Z,81.88
2023-04-15T00:19:32.632Z,82.08
2023-04-15T00:22:00.832Z,83.20
2023-04-15T00:24:29.161Z,83.87
2023-04-15T00:26:56.475Z,83.71
2023-04-15T00:29:24.590Z,84.74
2023-04-15T00:31:51.890Z,84.55
2023-04-15T00:34:19.445Z,84.72
2023-04-15T00:36:47.080Z,85.81
2023-04-15T00:39:14.521Z,85.70
2023-04-15T00:41:44.499Z,85.71
2023-04-15T00:44:12.815Z,88.07
2023-04-15T00:46:40.896Z,88.24
2023-04-15T00:49:08.688Z,88.79
2023-04-15T00:51:36.958Z,87.68
2023-04-15T00:54:05.329Z,87.73
2023-04-15T00:56:38.291Z,87.55
2023-04-15T00:59:07.182Z,87.00
2023-04-15T01:01:35.852Z,88.60
2023-04-15T01:04:03.519Z,88.37
2023-04-15T01:06:32.663Z,88.75
2023-04-15T01:09:00.738Z,88.02
2023-04-15T01:11:29.879Z,88.15
2023-04-15T01:13:58.966Z,87.06
2023-04-15T01:16:28.733Z,86.80
2023-04-15T01:18:56.536Z,87.22
2023-04-15T01:21:24.411Z,86.99
2023-04-15T01:23:53.416Z,85.39
2023-04-15T01:26:21.669Z,85.35
2023-04-15T01:28:49.015Z,85.81
2023-04-15T01:31:17.541Z,88.83
2023-04-15T01:33:47.120Z,89.41
2023-04-15T01:36:34.290Z,89.35
2023-04-15T01:39:02.124Z,90.58
2023-04-15T01:41:30.307Z,91.11
2023-04-15T01:43:59.394Z,91.82
2023-04-15T01:46:28.462Z,92.64
2023-04-15T01:48:57.540Z,93.90
2023-04-15T01:51:28.320Z,94.62
2023-04-15T01:53:57.142Z,95.46
2023-04-15T01:56:26.740Z,96.43
2023-04-15T01:58:55.740Z,97.52
2023-04-15T02:01:25.236Z,99.17
2023-04-15T02:03:54.264Z,100.00
2023-04-15T02:06:22.879Z,100.00
2023-04-15T02:08:51.415Z,99.98
2023-04-15T02:11:20.456Z,99.87
2023-04-15T02:13:49.523Z,100.00
2023-04-15T02:16:19.448Z,100.00
2023-04-15T02:18:48.637Z,100.00
2023-04-15T02:21:18.978Z,100.00
2023-04-15T02:23:48.471Z,100.00
2023-04-15T02:26:17.098Z,100.00
2023-04-15T02:28:47.177Z,99.88
2023-04-15T02:31:16.747Z,99.62
2023-04-15T02:33:46.689Z,99.04
2023-04-15T02:36:15.704Z,98.35
2023-04-15T02:38:44.434Z,97.96
2023-04-15T02:41:14.921Z,97.22
2023-04-15T02:43:46.203Z,98.11
2023-04-15T02:46:16.957Z,97.22
2023-04-15T02:48:46.472Z,97.29
2023-04-15T02:51:16.748Z,98.22
2023-04-15T02:53:46.153Z,97.36
2023-04-15T02:56:19.673Z,96.75
2023-04-15T02:58:50.789Z,95.87
2023-04-15T03:01:20.601Z,96.12
2023-04-15T03:03:49.518Z,96.54
2023-04-15T03:06:18.634Z,96.45
2023-04-15T03:08:47.332Z,97.09
2023-04-15T03:11:17.177Z,98.22
2023-04-15T03:13:45.984Z,97.52
2023-04-15T03:16:26.736Z,96.25
2023-04-15T03:18:55.263Z,96.99
2023-04-15T03:21:25.232Z,97.71
2023-04-15T03:23:54.170Z,98.15
2023-04-15T03:26:27.099Z,99.78
2023-04-15T03:28:57.007Z,100.00
2023-04-15T03:31:25.671Z,100.00
2023-04-15T03:33:54.761Z,100.00
2023-04-15T03:36:23.922Z,100.00
2023-04-15T03:38:53.091Z,100.00
2023-04-15T03:41:22.689Z,100.00
2023-04-15T03:43:53.947Z,100.00
2023-04-15T03:46:22.862Z,100.00
2023-04-15T03:48:52.178Z,100.00
2023-04-15T03:51:21.508Z,100.00
2023-04-15T03:53:51.251Z,100.00
2023-04-15T03:56:19.734Z,99.72
2023-04-15T03:58:48.663Z,100.00
2023-04-15T04:01:17.468Z,99.84
2023-04-15T04:03:46.563Z,100.00
2023-04-15T04:06:15.763Z,100.00
2023-04-15T04:08:44.402Z,100.00
2023-04-15T04:11:13.557Z,100.00
2023-04-15T04:13:42.072Z,100.00
2023-04-15T04:16:11.332Z,100.00
2023-04-15T04:18:39.969Z,100.00
2023-04-15T04:21:09.058Z,100.00
2023-04-15T04:23:37.798Z,100.00
2023-04-15T04:26:06.587Z,100.00
2023-04-15T04:28:36.581Z,98.09
2023-04-15T04:31:05.932Z,94.63
2023-04-15T04:33:35.047Z,94.75
2023-04-15T04:36:03.691Z,94.94
2023-04-15T04:38:32.821Z,95.04
2023-04-15T04:41:01.434Z,94.12
2023-04-15T04:43:30.473Z,95.08
2023-04-15T04:45:59.033Z,93.99
2023-04-15T04:48:27.776Z,93.52
2023-04-15T04:50:56.399Z,93.20
2023-04-15T04:53:25.766Z,93.52
2023-04-15T04:55:54.748Z,92.60
2023-04-15T04:58:23.938Z,91.64
2023-04-15T05:00:52.639Z,91.07
2023-04-15T05:03:22.065Z,93.28
2023-04-15T05:05:51.296Z,92.33
2023-04-15T05:08:19.934Z,92.33
2023-04-15T05:10:48.972Z,93.70
2023-04-15T05:13:17.574Z,93.01
2023-04-15T05:15:46.293Z,93.98
2023-04-15T05:18:14.972Z,95.61
2023-04-15T05:20:44.559Z,96.36
2023-04-15T05:23:13.173Z,96.05
2023-04-15T05:25:42.037Z,96.76
2023-04-15T05:28:10.945Z,95.75
2023-04-15T05:30:40.478Z,92.89
2023-04-15T05:33:09.402Z,92.27
2023-04-15T05:35:38.150Z,90.34
2023-04-15T05:38:06.908Z,87.93
2023-04-15T05:40:35.471Z,85.50
2023-04-15T05:43:04.654Z,83.96
2023-04-15T05:45:33.465Z,82.88
2023-04-15T05:48:02.172Z,79.87
2023-04-15T05:50:31.327Z,80.58
2023-04-15T05:53:00.353Z,79.50
2023-04-15T05:55:29.291Z,78.14
2023-04-15T05:57:58.293Z,77.14
2023-04-15T06:00:27.446Z,76.10
2023-04-15T06:02:59.050Z,74.04
2023-04-15T06:05:27.925Z,72.18
2023-04-15T06:07:56.641Z,68.57
2023-04-15T06:10:25.265Z,67.63
2023-04-15T06:12:53.832Z,67.58
2023-04-15T06:15:23.015Z,65.37
2023-04-15T06:17:52.259Z,66.05
2023-04-15T06:20:20.935Z,67.50
2023-04-15T06:22:49.534Z,67.38
2023-04-15T06:25:18.574Z,68.92
2023-04-15T06:27:47.176Z,68.92
2023-04-15T06:30:16.109Z,70.15
2023-04-15T06:32:45.046Z,70.24
2023-04-15T06:35:14.504Z,70.56
2023-04-15T06:37:43.126Z,68.38
2023-04-15T06:40:12.089Z,69.49
2023-04-15T06:42:41.943Z,67.28
2023-04-15T06:45:10.977Z,67.88
2023-04-15T06:47:40.876Z,69.67
2023-04-15T06:50:10.256Z,69.81
2023-04-15T06:52:38.959Z,68.55
2023-04-15T06:55:08.259Z,70.01
2023-04-15T06:57:37.225Z,70.84
2023-04-15T07:00:07.544Z,70.44
2023-04-15T07:02:36.882Z,69.67
2023-04-15T07:05:07.030Z,73.42
2023-04-15T07:07:36.213Z,75.88
2023-04-15T07:10:05.489Z,74.87
2023-04-15T07:12:35.157Z,74.40
2023-04-15T07:15:04.401Z,71.46
2023-04-15T07:17:33.439Z,70.13
2023-04-15T07:20:02.269Z,70.53
2023-04-15T07:22:31.080Z,72.54
2023-04-15T07:24:59.689Z,74.43
2023-04-15T07:27:28.348Z,75.85
2023-04-15T07:29:57.412Z,73.92
2023-04-15T07:32:26.667Z,72.41
2023-04-15T07:34:55.274Z,71.31
2023-04-15T07:37:24.154Z,70.04
2023-04-15T07:39:53.548Z,69.32
2023-04-15T07:42:22.764Z,68.93
2023-04-15T07:44:52.320Z,68.05
2023-04-15T07:47:21.421Z,70.82
2023-04-15T07:49:51.602Z,68.75
2023-04-15T07:52:20.123Z,66.17
2023-04-15T07:54:48.670Z,67.38
2023-04-15T07:57:17.962Z,64.93
2023-04-15T07:59:46.962Z,63.45
2023-04-15T08:02:15.604Z,62.65
2023-04-15T08:04:44.848Z,62.75
2023-04-15T08:07:13.981Z,63.86
2023-04-15T08:09:42.583Z,62.99
2023-04-15T08:12:13.502Z,62.08
2023-04-15T08:14:42.963Z,61.36
2023-04-15T08:17:12.280Z,57.68
2023-04-15T08:19:40.949Z,55.08
2023-04-15T08:22:15.874Z,54.42
2023-04-15T08:24:47.623Z,55.70
2023-04-15T08:27:16.183Z,51.77
2023-04-15T08:29:45.757Z,49.87
2023-04-15T08:32:15.012Z,49.49
2023-04-15T08:34:44.078Z,49.83
2023-04-15T08:37:12.852Z,49.97
2023-04-15T08:39:42.011Z,48.89
2023-04-15T08:42:16.723Z,48.61
2023-04-15T08:44:46.776Z,47.08
2023-04-15T08:47:18.110Z,45.93
2023-04-15T08:49:48.482Z,45.96
2023-04-15T08:52:17.623Z,46.19
2023-04-15T08:54:46.660Z,46.66
2023-04-15T08:57:16.070Z,44.98
2023-04-15T08:59:45.386Z,46.14
2023-04-15T09:02:14.050Z,46.82
2023-04-15T09:04:42.666Z,44.90
2023-04-15T09:07:11.706Z,43.78
2023-04-15T09:09:42.243Z,44.37
2023-04-15T09:12:11.675Z,42.17
2023-04-15T09:14:40.681Z,43.48
2023-04-15T09:17:11.200Z,44.60
2023-04-15T09:19:39.757Z,44.54
2023-04-15T09:22:08.341Z,43.28
2023-04-15T09:24:39.256Z,43.05
2023-04-15T09:27:08.352Z,43.98
2023-04-15T09:29:37.487Z,43.79
2023-04-15T09:32:16.004Z,42.09
2023-04-15T09:34:45.960Z,39.09
2023-04-15T09:37:31.155Z,38.35
2023-04-15T09:40:00.658Z,38.06
2023-04-15T09:42:30.241Z,36.97
2023-04-15T09:45:08.307Z,35.84
2023-04-15T09:47:37.397Z,34.09
2023-04-15T09:50:06.945Z,32.91
2023-04-15T09:52:41.659Z,33.50
2023-04-15T09:55:11.495Z,30.24
2023-04-15T09:57:44.719Z,29.92
2023-04-15T10:00:14.934Z,32.52
2023-04-15T10:02:44.191Z,32.20
2023-04-15T10:05:14.514Z,30.66
2023-04-15T10:07:44.007Z,30.84
2023-04-15T10:10:13.503Z,30.64
2023-04-15T10:12:42.439Z,31.98
2023-04-15T10:15:15.090Z,30.09
2023-04-15T10:17:44.785Z,30.99
2023-04-15T10:20:15.196Z,30.16
2023-04-15T10:22:45.824Z,29.18
2023-04-15T10:25:15.894Z,29.08
2023-04-15T10:27:45.242Z,29.58
2023-04-15T10:30:14.138Z,30.20
2023-04-15T10:32:43.129Z,29.03
2023-04-15T10:35:12.117Z,28.19
2023-04-15T10:37:40.643Z,27.78
2023-04-15T10:40:28.195Z,28.24
2023-04-15T10:42:57.915Z,28.02
2023-04-15T10:45:34.218Z,28.67
2023-04-15T10:48:04.064Z,24.91
2023-04-15T10:50:33.276Z,27.54
2023-04-15T10:53:05.735Z,28.49
2023-04-15T10:55:34.997Z,27.21
2023-04-15T10:58:04.221Z,28.43
2023-04-15T11:00:33.316Z,26.36
2023-04-15T11:03:08.880Z,27.28
2023-04-15T11:05:51.038Z,29.22
2023-04-15T11:08:41.804Z,28.32
2023-04-15T11:11:10.449Z,30.11
2023-04-15T11:13:47.573Z,28.99
2023-04-15T11:16:16.443Z,25.96
2023-04-15T11:18:55.910Z,24.24
2023-04-15T11:21:28.241Z,24.12
2023-04-15T11:23:56.857Z,24.76
2023-04-15T11:26:27.259Z,25.42
2023-04-15T11:28:57.049Z,24.97
2023-04-15T11:31:27.912Z,27.38
2023-04-15T11:33:59.152Z,27.95
2023-04-15T11:36:29.531Z,26.53
2023-04-15T11:38:59.511Z,29.04
2023-04-15T11:41:28.106Z,29.04
2023-04-15T11:43:56.810Z,25.95
2023-04-15T11:46:32.027Z,25.46
2023-04-15T11:49:01.685Z,24.12
2023-04-15T11:51:34.714Z,26.03
2023-04-15T11:54:02.739Z,24.93
2023-04-15T11:56:30.539Z,22.71
2023-04-15T11:59:02.342Z,25.74
2023-04-15T12:01:32.864Z,27.81
2023-04-15T12:04:01.976Z,27.76
2023-04-15T12:06:35.169Z,27.69
2023-04-15T12:09:12.577Z,27.40
2023-04-15T12:11:41.411Z,25.77
2023-04-15T12:14:10.709Z,25.13
2023-04-15T12:16:48.747Z,25.89
2023-04-15T12:19:19.694Z,27.89
2023-04-15T12:21:48.731Z,30.88
2023-04-15T12:24:19.863Z,30.83
2023-04-15T12:26:47.635Z,31.14
2023-04-15T12:29:16.512Z,30.75
2023-04-15T12:31:54.119Z,30.12
2023-04-15T12:34:35.748Z,30.43
2023-04-15T12:37:04.353Z,29.11
2023-04-15T12:39:33.557Z,28.89
2023-04-15T12:42:01.670Z,28.58
2023-04-15T12:44:30.314Z,28.56
2023-04-15T12:46:58.333Z,28.03
2023-04-15T12:49:26.764Z,28.00
2023-04-15T12:51:55.963Z,28.61
2023-04-15T12:54:23.475Z,28.59
2023-04-15T12:56:51.631Z,26.75
2023-04-15T12:59:19.565Z,27.95
2023-04-15T13:01:47.510Z,26.57
2023-04-15T13:04:16.482Z,28.79
2023-04-15T13:06:44.749Z,27.86
2023-04-15T13:09:12.521Z,26.49
2023-04-15T13:11:39.826Z,25.21
2023-04-15T13:14:08.395Z,28.70
2023-04-15T13:16:36.213Z,31.13
2023-04-15T13:19:04.591Z,32.93
2023-04-15T13:21:35.744Z,32.41
2023-04-15T13:24:04.870Z,29.76
2023-04-15T13:26:33.136Z,29.39
2023-04-15T13:29:01.978Z,30.73
2023-04-15T13:31:29.618Z,29.94
2023-04-15T13:33:57.644Z,32.50
2023-04-15T13:36:26.456Z,33.30
2023-04-15T13:38:54.572Z,33.93
2023-04-15T13:41:22.032Z,34.14
2023-04-15T13:43:49.440Z,32.75
2023-04-15T13:46:17.035Z,32.76
2023-04-15T13:48:44.751Z,33.23
2023-04-15T13:51:12.098Z,35.96
2023-04-15T13:53:39.897Z,36.64
2023-04-15T13:56:08.389Z,34.69
2023-04-15T13:58:37.098Z,35.18
2023-04-15T14:01:06.112Z,33.07
2023-04-15T14:03:34.794Z,33.61
2023-04-15T14:06:02.615Z,34.28
2023-04-15T14:08:31.166Z,34.48
2023-04-15T14:10:58.496Z,33.58
2023-04-15T14:13:26.242Z,35.16
2023-04-15T14:15:53.977Z,34.74
2023-04-15T14:18:21.637Z,34.54
2023-04-15T14:20:49.464Z,34.84
2023-04-15T14:23:17.188Z,35.24
2023-04-15T14:25:46.685Z,35.02
2023-04-15T14:28:15.464Z,36.27
2023-04-15T14:30:42.915Z,35.40
2023-04-15T14:33:10.272Z,34.74
2023-04-15T14:35:38.009Z,35.43
2023-04-15T14:38:06.200Z,35.94
2023-04-15T14:40:34.497Z,36.09
2023-04-15T14:43:01.843Z,37.17
2023-04-15T14:45:30.670Z,36.14
2023-04-15T14:47:59.507Z,35.48
2023-04-15T14:50:27.507Z,34.38
2023-04-15T14:52:55.505Z,35.11
2023-04-15T14:55:22.859Z,35.47
2023-04-15T14:57:50.567Z,36.21
2023-04-15T15:00:18.357Z,35.11
2023-04-15T15:02:47.574Z,34.46
2023-04-15T15:05:15.180Z,34.08
2023-04-15T15:07:42.522Z,34.44
2023-04-15T15:10:10.029Z,35.61
2023-04-15T15:12:37.688Z,35.46
2023-04-15T15:15:15.581Z,37.62
2023-04-15T15:17:54.412Z,38.37
2023-04-15T15:20:23.141Z,37.64
2023-04-15T15:22:50.685Z,36.57
2023-04-15T15:25:18.498Z,37.23
2023-04-15T15:27:46.707Z,36.20
2023-04-15T15:30:14.412Z,37.44
2023-04-15T15:32:43.037Z,35.83
2023-04-15T15:35:10.847Z,37.64
2023-04-15T15:37:39.110Z,37.82
2023-04-15T15:40:07.531Z,36.89
2023-04-15T15:42:35.020Z,36.12
2023-04-15T15:45:03.619Z,35.65
2023-04-15T15:47:32.191Z,34.57
2023-04-15T15:50:00.572Z,34.08
2023-04-15T15:52:28.452Z,34.53
2023-04-15T15:54:56.262Z,33.52
2023-04-15T15:57:24.006Z,33.32
2023-04-15T16:00:01.998Z,33.38
2023-04-15T16:03:04.469Z,33.37
2023-04-15T16:05:24.853Z,34.99
2023-04-15T16:07:52.747Z,35.09
2023-04-15T16:10:20.583Z,35.18
2023-04-15T16:12:48.918Z,35.96
2023-04-15T16:15:16.507Z,36.08
2023-04-15T16:17:44.198Z,35.91
2023-04-15T16:20:11.750Z,35.31
2023-04-15T16:22:39.465Z,35.33
2023-04-15T16:25:07.374Z,35.96
2023-04-15T16:27:43.441Z,36.25
2023-04-15T16:30:18.032Z,34.91
2023-04-15T16:32:45.736Z,35.49
2023-04-15T16:35:14.522Z,34.95
2023-04-15T16:37:42.541Z,35.04
2023-04-15T16:40:10.531Z,35.80
2023-04-15T16:42:38.840Z,36.32
2023-04-15T16:45:06.860Z,38.73
2023-04-15T16:47:35.056Z,40.32
2023-04-15T16:50:02.362Z,40.74
2023-04-15T16:52:30.136Z,41.26
2023-04-15T16:54:57.484Z,41.51
2023-04-15T16:57:24.822Z,41.00
2023-04-15T16:59:59.181Z,40.84
2023-04-15T17:02:27.040Z,41.89
2023-04-15T17:04:54.663Z,41.43
2023-04-15T17:07:21.998Z,41.62
2023-04-15T17:09:49.235Z,42.33
2023-04-15T17:12:16.584Z,43.19
2023-04-15T17:14:44.901Z,43.41
2023-04-15T17:17:12.639Z,43.82
2023-04-15T17:19:40.058Z,46.39
2023-04-15T17:22:10.319Z,48.78
2023-04-15T17:24:38.887Z,48.77
2023-04-15T17:27:10.258Z,49.64
2023-04-15T17:29:38.947Z,49.63
2023-04-15T17:32:19.180Z,50.91
2023-04-15T17:35:07.204Z,51.35
2023-04-15T17:37:54.464Z,51.93
2023-04-15T17:40:42.020Z,51.52
2023-04-15T17:43:29.525Z,52.26
2023-04-15T17:46:19.364Z,52.26
2023-04-15T17:49:07.500Z,51.92
2023-04-15T17:51:55.758Z,53.05
2023-04-15T17:54:42.866Z,52.53
2023-04-15T17:57:30.947Z,52.56
2023-04-15T18:00:18.560Z,52.71
2023-04-15T18:03:05.878Z,52.34
2023-04-15T18:05:53.381Z,53.62
2023-04-15T18:08:41.254Z,52.83
2023-04-15T18:11:28.375Z,54.40
2023-04-15T18:14:30.587Z,53.40
2023-04-15T18:17:21.734Z,52.63
2023-04-15T18:20:09.598Z,53.02
2023-04-15T18:22:37.298Z,53.40
2023-04-15T18:25:05.528Z,53.14
2023-04-15T18:27:33.939Z,53.09
2023-04-15T18:30:01.228Z,54.07
2023-04-15T18:32:31.920Z,54.37
2023-04-15T18:34:59.657Z,54.14
2023-04-15T18:37:29.363Z,54.69
2023-04-15T18:39:57.299Z,53.59
2023-04-15T18:42:25.728Z,54.16
2023-04-15T18:44:54.087Z,54.81
2023-04-15T18:47:22.204Z,55.92
2023-04-15T18:49:50.052Z,55.50
2023-04-15T18:52:17.311Z,56.48
2023-04-15T18:54:44.542Z,57.36
2023-04-15T18:57:12.691Z,58.42
2023-04-15T18:59:40.500Z,57.74
2023-04-15T19:02:09.125Z,58.14
2023-04-15T19:04:37.758Z,58.26
2023-04-15T19:07:05.180Z,57.92
2023-04-15T19:09:33.197Z,57.29
2023-04-15T19:12:01.870Z,56.93
2023-04-15T19:14:29.385Z,56.75
2023-04-15T19:16:57.017Z,56.83
2023-04-15T19:19:24.494Z,56.16
2023-04-15T19:21:52.837Z,56.10
2023-04-15T19:24:20.136Z,56.62
2023-04-15T19:26:49.015Z,56.09
2023-04-15T19:29:17.158Z,55.74
2023-04-15T19:31:44.877Z,55.63
2023-04-15T19:34:12.212Z,55.39
2023-04-15T19:36:39.621Z,55.28
2023-04-15T19:39:07.278Z,54.94
2023-04-15T19:41:36.234Z,55.08
2023-04-15T19:44:04.498Z,54.81
2023-04-15T19:46:32.335Z,55.16
2023-04-15T19:49:01.089Z,55.01
2023-04-15T19:51:30.453Z,55.34
2023-04-15T19:53:59.583Z,56.44
2023-04-15T19:56:26.962Z,56.88
2023-04-15T19:58:55.070Z,56.66
2023-04-15T20:01:22.794Z,57.11
2023-04-15T20:03:51.694Z,57.06
2023-04-15T20:06:19.200Z,57.04
2023-04-15T20:08:46.582Z,58.31
2023-04-15T20:11:15.204Z,57.34
2023-04-15T20:13:42.679Z,56.70
2023-04-15T20:16:11.813Z,57.67
2023-04-15T20:18:39.198Z,58.56
2023-04-15T20:21:06.912Z,58.14
2023-04-15T20:23:36.003Z,58.37
2023-04-15T20:26:03.929Z,57.62
2023-04-15T20:28:33.071Z,57.71
2023-04-15T20:31:01.510Z,58.19
2023-04-15T20:33:29.308Z,57.74
2023-04-15T20:35:56.740Z,57.82
2023-04-15T20:38:24.146Z,57.66
2023-04-15T20:40:51.432Z,57.72
2023-04-15T20:43:19.512Z,58.03
2023-04-15T20:45:46.884Z,58.35
2023-04-15T20:48:14.353Z,57.44
2023-04-15T20:50:42.145Z,58.17
2023-04-15T20:53:09.551Z,58.13
2023-04-15T20:55:37.295Z,57.35
2023-04-15T20:58:05.005Z,57.51
2023-04-15T21:00:33.313Z,57.81
2023-04-15T21:03:01.083Z,58.19
2023-04-15T21:05:29.460Z,58.56
2023-04-15T21:07:57.179Z,58.89
2023-04-15T21:10:25.293Z,58.91
2023-04-15T21:12:53.511Z,58.43
2023-04-15T21:15:21.379Z,57.59
2023-04-15T21:17:48.714Z,57.19
2023-04-15T21:20:16.595Z,57.09
2023-04-15T21:22:44.723Z,57.38
2023-04-15T21:25:12.466Z,57.07
2023-04-15T21:27:40.369Z,57.27
2023-04-15T21:30:08.358Z,56.79
2023-04-15T21:32:36.307Z,56.44
2023-04-15T21:35:05.816Z,57.23
2023-04-15T21:37:33.817Z,57.11
2023-04-15T21:40:01.668Z,56.48
2023-04-15T21:42:29.787Z,56.13
2023-04-15T21:44:57.181Z,57.11
2023-04-15T21:47:25.002Z,56.45
2023-04-15T21:49:52.830Z,56.05
2023-04-15T21:52:20.202Z,56.39
2023-04-15T21:54:48.105Z,58.02
2023-04-15T21:57:15.879Z,57.59
2023-04-15T21:59:43.199Z,57.43
2023-04-15T22:02:11.581Z,57.37
2023-04-15T22:04:39.656Z,56.38
2023-04-15T22:07:06.982Z,57.41
2023-04-15T22:09:34.298Z,58.08
2023-04-15T22:12:03.932Z,58.34
2023-04-15T22:14:31.701Z,58.66
2023-04-15T22:16:59.236Z,59.15
2023-04-15T22:19:26.656Z,59.71
2023-04-15T22:21:54.486Z,59.57
2023-04-15T22:24:32.494Z,60.23
2023-04-15T22:27:07.218Z,61.56
2023-04-15T22:29:35.062Z,61.45
2023-04-15T22:32:02.460Z,61.04
2023-04-15T22:34:30.261Z,61.42
2023-04-15T22:36:58.187Z,61.63
2023-04-15T22:39:25.557Z,61.01
2023-04-15T22:41:52.798Z,61.17
2023-04-15T22:44:20.223Z,61.48
2023-04-15T22:46:47.534Z,62.74
2023-04-15T22:49:15.579Z,62.30
2023-04-15T22:51:43.342Z,62.58
2023-04-15T22:54:10.853Z,62.57
2023-04-15T22:57:15.619Z,63.29
2023-04-15T23:00:16.030Z,63.67
2023-04-15T23:02:43.480Z,64.42
2023-04-15T23:05:12.549Z,64.38
2023-04-15T23:07:41.157Z,64.66
2023-04-15T23:10:09.079Z,65.19
2023-04-15T23:12:36.409Z,65.58
2023-04-15T23:15:04.376Z,66.17
2023-04-15T23:17:32.142Z,65.60
2023-04-15T23:19:59.506Z,65.42
2023-04-15T23:22:27.272Z,66.45
2023-04-15T23:24:55.511Z,66.64
2023-04-15T23:27:22.897Z,66.68
2023-04-15T23:29:50.191Z,66.66
2023-04-15T23:32:18.001Z,66.45
2023-04-15T23:34:45.515Z,68.21
2023-04-15T23:37:13.303Z,68.10
2023-04-15T23:39:41.059Z,67.97
2023-04-15T23:42:08.639Z,68.38
2023-04-15T23:44:38.319Z,69.26
2023-04-15T23:47:05.914Z,70.02
2023-04-15T23:49:33.394Z,71.07
2023-04-15T23:52:01.508Z,70.69
2023-04-15T23:54:28.828Z,71.51
2023-04-15T23:56:56.180Z,71.46
2023-04-15T23:59:23.480Z,72.20
